sensor_id;sensor_type;location;lat;lon;timestamp;noise_LAeq;noise_LA_min;noise_LA_max;noise_LA01;noise_LA95
67300;Laerm;57658;51.436;5.980;2023-10-08T00:00:00;42.76;33.20;51.67;;
67300;Laerm;57658;51.436;5.980;2023-10-08T00:00:30;49.09;31.20;68.86;;
67300;Laerm;57658;51.436;5.980;2023-10-08T00:00:59;34.41;31.39;37.07;;
67300;Laerm;57658;51.436;5.980;2023-10-08T00:01:12;49.67;34.41;60.56;;
67300;Laerm;57658;51.436;5.980;2023-10-08T00:01:24;55.30;41.99;62.42;;
67300;Laerm;57658;51.436;5.980;2023-10-08T00:01:34;48.90;37.81;66.23;;
67300;Laerm;57658;51.436;5.980;2023-10-08T00:01:45;46.70;34.29;59.03;;
67300;Laerm;57658;51.436;5.980;2023-10-08T00:01:56;34.85;31.73;39.97;;
67300;Laerm;57658;51.436;5.980;2023-10-08T00:02:06;33.05;30.70;36.47;;
67300;Laerm;57658;51.436;5.980;2023-10-08T00:02:17;33.23;31.28;37.94;;
67300;Laerm;57658;51.436;5.980;2023-10-08T00:02:32;33.72;31.61;38.67;;
67300;Laerm;57658;51.436;5.980;2023-10-08T00:02:42;39.60;31.45;51.81;;
67300;Laerm;57658;51.436;5.980;2023-10-08T00:02:52;44.71;32.22;58.57;;
67300;Laerm;57658;51.436;5.980;2023-10-08T00:03:03;54.40;34.88;68.88;;
67300;Laerm;57658;51.436;5.980;2023-10-08T00:03:15;37.29;31.34;52.46;;
67300;Laerm;57658;51.436;5.980;2023-10-08T00:03:30;33.32;31.38;42.31;;
67300;Laerm;57658;51.436;5.980;2023-10-08T00:03:43;32.86;30.86;37.53;;
67300;Laerm;57658;51.436;5.980;2023-10-08T00:04:13;32.90;30.66;40.00;;
67300;Laerm;57658;51.436;5.980;2023-10-08T00:04:28;32.85;30.84;36.75;;
67300;Laerm;57658;51.436;5.980;2023-10-08T00:04:39;32.65;31.11;34.87;;
67300;Laerm;57658;51.436;5.980;2023-10-08T00:04:50;33.04;31.54;35.84;;
67300;Laerm;57658;51.436;5.980;2023-10-08T00:05:01;32.93;31.55;34.71;;
67300;Laerm;57658;51.436;5.980;2023-10-08T00:05:11;32.85;31.55;34.82;;
67300;Laerm;57658;51.436;5.980;2023-10-08T00:05:25;34.47;31.87;38.94;;
67300;Laerm;57658;51.436;5.980;2023-10-08T00:05:38;43.93;36.12;48.93;;
67300;Laerm;57658;51.436;5.980;2023-10-08T00:05:49;57.03;48.12;61.54;;
67300;Laerm;57658;51.436;5.980;2023-10-08T00:06:02;49.45;39.88;58.66;;
67300;Laerm;57658;51.436;5.980;2023-10-08T00:06:19;39.69;35.77;42.82;;
67300;Laerm;57658;51.436;5.980;2023-10-08T00:06:31;36.60;33.24;39.42;;
67300;Laerm;57658;51.436;5.980;2023-10-08T00:06:42;36.29;33.05;39.86;;
67300;Laerm;57658;51.436;5.980;2023-10-08T00:06:52;35.96;33.34;38.44;;
67300;Laerm;57658;51.436;5.980;2023-10-08T00:07:03;33.77;32.20;36.02;;
67300;Laerm;57658;51.436;5.980;2023-10-08T00:07:17;33.44;31.80;35.30;;
67300;Laerm;57658;51.436;5.980;2023-10-08T00:07:31;33.16;30.75;35.54;;
67300;Laerm;57658;51.436;5.980;2023-10-08T00:07:41;32.37;31.26;34.48;;
67300;Laerm;57658;51.436;5.980;2023-10-08T00:07:52;32.97;31.90;34.34;;
67300;Laerm;57658;51.436;5.980;2023-10-08T00:08:06;33.07;31.90;37.24;;
67300;Laerm;57658;51.436;5.980;2023-10-08T00:08:16;32.95;31.44;34.77;;
67300;Laerm;57658;51.436;5.980;2023-10-08T00:08:27;32.80;31.52;35.86;;
67300;Laerm;57658;51.436;5.980;2023-10-08T00:08:37;32.95;31.58;34.18;;
67300;Laerm;57658;51.436;5.980;2023-10-08T00:08:48;33.40;31.90;35.64;;
67300;Laerm;57658;51.436;5.980;2023-10-08T00:08:58;33.41;32.13;35.72;;
67300;Laerm;57658;51.436;5.980;2023-10-08T00:09:16;32.69;31.26;35.53;;
67300;Laerm;57658;51.436;5.980;2023-10-08T00:09:26;33.00;30.98;36.83;;
67300;Laerm;57658;51.436;5.980;2023-10-08T00:09:36;33.02;31.37;34.70;;
67300;Laerm;57658;51.436;5.980;2023-10-08T00:09:50;32.99;30.79;35.24;;
67300;Laerm;57658;51.436;5.980;2023-10-08T00:10:03;33.26;31.08;43.79;;
67300;Laerm;57658;51.436;5.980;2023-10-08T00:10:14;34.34;31.80;43.40;;
67300;Laerm;57658;51.436;5.980;2023-10-08T00:10:24;55.24;35.75;73.26;;
67300;Laerm;57658;51.436;5.980;2023-10-08T00:10:37;44.02;32.56;63.45;;
67300;Laerm;57658;51.436;5.980;2023-10-08T00:10:50;34.36;31.83;52.18;;
67300;Laerm;57658;51.436;5.980;2023-10-08T00:11:01;32.60;31.16;40.92;;
67300;Laerm;57658;51.436;5.980;2023-10-08T00:11:20;33.13;31.23;38.20;;
67300;Laerm;57658;51.436;5.980;2023-10-08T00:11:35;32.07;30.50;37.49;;
67300;Laerm;57658;51.436;5.980;2023-10-08T00:11:52;34.36;31.00;48.61;;
67300;Laerm;57658;51.436;5.980;2023-10-08T00:12:04;32.38;30.93;35.81;;
67300;Laerm;57658;51.436;5.980;2023-10-08T00:12:14;32.61;31.45;34.35;;
67300;Laerm;57658;51.436;5.980;2023-10-08T00:12:26;33.61;32.00;36.83;;
67300;Laerm;57658;51.436;5.980;2023-10-08T00:12:39;35.66;31.15;50.49;;
67300;Laerm;57658;51.436;5.980;2023-10-08T00:12:49;34.77;31.48;48.01;;
67300;Laerm;57658;51.436;5.980;2023-10-08T00:13:01;32.97;31.77;34.88;;
67300;Laerm;57658;51.436;5.980;2023-10-08T00:13:11;32.94;31.41;38.49;;
67300;Laerm;57658;51.436;5.980;2023-10-08T00:13:22;33.01;31.83;37.16;;
67300;Laerm;57658;51.436;5.980;2023-10-08T00:13:33;32.74;31.49;33.86;;
67300;Laerm;57658;51.436;5.980;2023-10-08T00:13:50;32.58;30.80;35.64;;
67300;Laerm;57658;51.436;5.980;2023-10-08T00:14:00;34.12;32.25;37.16;;
67300;Laerm;57658;51.436;5.980;2023-10-08T00:14:11;33.70;31.56;36.55;;
67300;Laerm;57658;51.436;5.980;2023-10-08T00:14:27;47.15;32.11;60.95;;
67300;Laerm;57658;51.436;5.980;2023-10-08T00:14:38;53.87;33.98;67.14;;
67300;Laerm;57658;51.436;5.980;2023-10-08T00:14:54;39.38;31.69;52.19;;
67300;Laerm;57658;51.436;5.980;2023-10-08T00:15:04;36.01;31.88;43.49;;
67300;Laerm;57658;51.436;5.980;2023-10-08T00:15:20;50.50;32.33;64.74;;
67300;Laerm;57658;51.436;5.980;2023-10-08T00:15:30;47.31;33.85;57.82;;
67300;Laerm;57658;51.436;5.980;2023-10-08T00:15:43;39.02;32.42;52.26;;
67300;Laerm;57658;51.436;5.980;2023-10-08T00:16:02;33.24;31.52;37.59;;
67300;Laerm;57658;51.436;5.980;2023-10-08T00:16:19;32.19;30.81;34.67;;
67300;Laerm;57658;51.436;5.980;2023-10-08T00:16:32;32.47;31.08;35.42;;
67300;Laerm;57658;51.436;5.980;2023-10-08T00:16:43;32.50;30.93;34.89;;
67300;Laerm;57658;51.436;5.980;2023-10-08T00:16:59;32.70;31.28;34.57;;
67300;Laerm;57658;51.436;5.980;2023-10-08T00:17:11;31.99;30.84;33.28;;
67300;Laerm;57658;51.436;5.980;2023-10-08T00:17:21;32.30;31.19;33.95;;
67300;Laerm;57658;51.436;5.980;2023-10-08T00:17:31;33.18;31.18;40.12;;
67300;Laerm;57658;51.436;5.980;2023-10-08T00:17:42;33.33;31.77;35.70;;
67300;Laerm;57658;51.436;5.980;2023-10-08T00:17:55;32.78;31.03;35.36;;
67300;Laerm;57658;51.436;5.980;2023-10-08T00:18:08;33.12;31.20;36.29;;
67300;Laerm;57658;51.436;5.980;2023-10-08T00:18:22;33.55;32.17;39.54;;
67300;Laerm;57658;51.436;5.980;2023-10-08T00:18:32;34.63;32.87;37.18;;
67300;Laerm;57658;51.436;5.980;2023-10-08T00:18:44;34.12;32.15;36.87;;
67300;Laerm;57658;51.436;5.980;2023-10-08T00:19:01;33.34;31.60;34.81;;
67300;Laerm;57658;51.436;5.980;2023-10-08T00:19:18;33.39;31.80;36.43;;
67300;Laerm;57658;51.436;5.980;2023-10-08T00:19:28;33.35;31.36;36.90;;
67300;Laerm;57658;51.436;5.980;2023-10-08T00:19:45;35.58;31.65;53.02;;
67300;Laerm;57658;51.436;5.980;2023-10-08T00:19:55;37.92;32.34;57.79;;
67300;Laerm;57658;51.436;5.980;2023-10-08T00:20:10;38.44;32.79;51.24;;
67300;Laerm;57658;51.436;5.980;2023-10-08T00:20:26;39.04;33.55;49.08;;
67300;Laerm;57658;51.436;5.980;2023-10-08T00:20:38;33.53;31.97;34.78;;
67300;Laerm;57658;51.436;5.980;2023-10-08T00:21:07;34.42;32.02;38.06;;
67300;Laerm;57658;51.436;5.980;2023-10-08T00:21:21;33.82;32.23;38.16;;
67300;Laerm;57658;51.436;5.980;2023-10-08T00:21:37;33.53;32.07;36.29;;
67300;Laerm;57658;51.436;5.980;2023-10-08T00:21:48;33.59;31.59;35.11;;
67300;Laerm;57658;51.436;5.980;2023-10-08T00:21:59;33.06;31.68;34.91;;
67300;Laerm;57658;51.436;5.980;2023-10-08T00:22:15;34.73;32.37;37.17;;
67300;Laerm;57658;51.436;5.980;2023-10-08T00:22:28;34.69;32.81;38.05;;
67300;Laerm;57658;51.436;5.980;2023-10-08T00:22:41;35.40;32.35;40.94;;
67300;Laerm;57658;51.436;5.980;2023-10-08T00:22:52;42.40;36.73;48.90;;
67300;Laerm;57658;51.436;5.980;2023-10-08T00:23:05;39.58;36.87;41.79;;
67300;Laerm;57658;51.436;5.980;2023-10-08T00:23:21;37.74;34.01;42.00;;
67300;Laerm;57658;51.436;5.980;2023-10-08T00:23:31;37.76;34.78;40.65;;
67300;Laerm;57658;51.436;5.980;2023-10-08T00:23:45;38.47;34.69;45.42;;
67300;Laerm;57658;51.436;5.980;2023-10-08T00:24:11;55.24;38.47;64.91;;
67300;Laerm;57658;51.436;5.980;2023-10-08T00:24:25;68.56;44.53;78.74;;
67300;Laerm;57658;51.436;5.980;2023-10-08T00:24:37;70.99;55.18;78.13;;
67300;Laerm;57658;51.436;5.980;2023-10-08T00:24:51;59.05;54.95;60.94;;
67300;Laerm;57658;51.436;5.980;2023-10-08T00:25:07;60.54;55.95;64.08;;
67300;Laerm;57658;51.436;5.980;2023-10-08T00:25:21;66.74;60.81;71.83;;
67300;Laerm;57658;51.436;5.980;2023-10-08T00:25:31;71.60;68.52;75.61;;
67300;Laerm;57658;51.436;5.980;2023-10-08T00:25:44;77.17;73.70;82.89;;
67300;Laerm;57658;51.436;5.980;2023-10-08T00:25:57;77.67;74.95;84.04;;
67300;Laerm;57658;51.436;5.980;2023-10-08T00:26:14;74.89;68.66;80.65;;
67300;Laerm;57658;51.436;5.980;2023-10-08T00:26:29;66.68;62.53;70.02;;
67300;Laerm;57658;51.436;5.980;2023-10-08T00:26:42;60.89;57.76;63.76;;
67300;Laerm;57658;51.436;5.980;2023-10-08T00:26:52;58.81;56.23;62.99;;
67300;Laerm;57658;51.436;5.980;2023-10-08T00:27:04;56.03;53.55;58.15;;
67300;Laerm;57658;51.436;5.980;2023-10-08T00:27:16;53.04;49.35;56.17;;
67300;Laerm;57658;51.436;5.980;2023-10-08T00:27:27;50.64;47.46;59.45;;
67300;Laerm;57658;51.436;5.980;2023-10-08T00:27:38;49.85;47.07;53.22;;
67300;Laerm;57658;51.436;5.980;2023-10-08T00:27:49;48.50;45.50;50.91;;
67300;Laerm;57658;51.436;5.980;2023-10-08T00:28:01;54.04;44.84;75.85;;
67300;Laerm;57658;51.436;5.980;2023-10-08T00:28:12;47.90;44.37;58.58;;
67300;Laerm;57658;51.436;5.980;2023-10-08T00:28:23;47.90;44.32;58.20;;
67300;Laerm;57658;51.436;5.980;2023-10-08T00:28:34;48.91;43.64;64.34;;
67300;Laerm;57658;51.436;5.980;2023-10-08T00:28:45;47.32;43.13;52.39;;
67300;Laerm;57658;51.436;5.980;2023-10-08T00:28:59;43.23;40.33;47.34;;
67300;Laerm;57658;51.436;5.980;2023-10-08T00:29:09;45.90;41.74;56.60;;
67300;Laerm;57658;51.436;5.980;2023-10-08T00:29:26;46.77;43.42;50.20;;
67300;Laerm;57658;51.436;5.980;2023-10-08T00:29:36;46.17;43.20;51.99;;
67300;Laerm;57658;51.436;5.980;2023-10-08T00:29:50;44.36;38.99;48.65;;
67300;Laerm;57658;51.436;5.980;2023-10-08T00:30:00;45.17;39.05;51.37;;
67300;Laerm;57658;51.436;5.980;2023-10-08T00:30:16;40.39;37.16;45.08;;
67300;Laerm;57658;51.436;5.980;2023-10-08T00:30:27;41.26;37.44;45.54;;
67300;Laerm;57658;51.436;5.980;2023-10-08T00:30:41;42.92;36.88;58.20;;
67300;Laerm;57658;51.436;5.980;2023-10-08T00:30:54;42.66;35.76;58.70;;
67300;Laerm;57658;51.436;5.980;2023-10-08T00:31:05;51.21;36.78;65.31;;
67300;Laerm;57658;51.436;5.980;2023-10-08T00:31:23;40.39;36.54;52.67;;
67300;Laerm;57658;51.436;5.980;2023-10-08T00:31:40;41.28;36.50;56.81;;
67300;Laerm;57658;51.436;5.980;2023-10-08T00:31:51;37.82;34.62;42.00;;
67300;Laerm;57658;51.436;5.980;2023-10-08T00:32:01;37.14;34.83;39.40;;
67300;Laerm;57658;51.436;5.980;2023-10-08T00:32:21;37.08;33.95;42.91;;
67300;Laerm;57658;51.436;5.980;2023-10-08T00:32:31;37.14;33.94;40.91;;
67300;Laerm;57658;51.436;5.980;2023-10-08T00:32:42;37.54;35.04;40.65;;
67300;Laerm;57658;51.436;5.980;2023-10-08T00:32:52;38.37;34.49;47.49;;
67300;Laerm;57658;51.436;5.980;2023-10-08T00:33:02;36.14;33.93;41.28;;
67300;Laerm;57658;51.436;5.980;2023-10-08T00:33:13;36.14;34.41;38.60;;
67300;Laerm;57658;51.436;5.980;2023-10-08T00:33:25;36.39;33.85;40.36;;
67300;Laerm;57658;51.436;5.980;2023-10-08T00:33:35;36.94;34.52;39.16;;
67300;Laerm;57658;51.436;5.980;2023-10-08T00:33:46;36.09;34.13;38.15;;
67300;Laerm;57658;51.436;5.980;2023-10-08T00:33:57;34.88;32.48;37.80;;
67300;Laerm;57658;51.436;5.980;2023-10-08T00:34:07;36.49;34.53;38.67;;
67300;Laerm;57658;51.436;5.980;2023-10-08T00:34:24;37.21;33.89;41.86;;
67300;Laerm;57658;51.436;5.980;2023-10-08T00:34:34;35.02;33.41;37.88;;
67300;Laerm;57658;51.436;5.980;2023-10-08T00:34:51;35.07;32.70;38.94;;
67300;Laerm;57658;51.436;5.980;2023-10-08T00:35:02;36.31;33.44;40.46;;
67300;Laerm;57658;51.436;5.980;2023-10-08T00:35:15;35.39;33.59;37.66;;
67300;Laerm;57658;51.436;5.980;2023-10-08T00:35:30;35.22;33.10;37.42;;
67300;Laerm;57658;51.436;5.980;2023-10-08T00:35:41;34.15;32.35;36.07;;
67300;Laerm;57658;51.436;5.980;2023-10-08T00:35:51;34.13;32.30;36.02;;
67300;Laerm;57658;51.436;5.980;2023-10-08T00:36:02;34.50;32.51;37.72;;
67300;Laerm;57658;51.436;5.980;2023-10-08T00:36:27;33.42;31.83;35.33;;
67300;Laerm;57658;51.436;5.980;2023-10-08T00:36:38;33.13;31.27;34.93;;
67300;Laerm;57658;51.436;5.980;2023-10-08T00:36:48;33.30;31.67;40.72;;
67300;Laerm;57658;51.436;5.980;2023-10-08T00:36:59;33.89;32.10;35.58;;
67300;Laerm;57658;51.436;5.980;2023-10-08T00:37:12;36.42;33.79;38.62;;
67300;Laerm;57658;51.436;5.980;2023-10-08T00:37:24;35.78;32.73;40.18;;
67300;Laerm;57658;51.436;5.980;2023-10-08T00:37:37;33.90;32.55;37.40;;
67300;Laerm;57658;51.436;5.980;2023-10-08T00:37:47;36.25;33.19;38.53;;
67300;Laerm;57658;51.436;5.980;2023-10-08T00:37:58;35.21;32.14;38.07;;
67300;Laerm;57658;51.436;5.980;2023-10-08T00:38:11;35.49;32.78;38.56;;
67300;Laerm;57658;51.436;5.980;2023-10-08T00:38:30;34.15;32.24;36.26;;
67300;Laerm;57658;51.436;5.980;2023-10-08T00:38:42;34.67;31.66;38.00;;
67300;Laerm;57658;51.436;5.980;2023-10-08T00:38:54;34.61;32.33;37.25;;
67300;Laerm;57658;51.436;5.980;2023-10-08T00:39:09;35.19;32.56;37.50;;
67300;Laerm;57658;51.436;5.980;2023-10-08T00:39:23;33.56;31.80;35.42;;
67300;Laerm;57658;51.436;5.980;2023-10-08T00:39:34;34.07;31.24;38.53;;
67300;Laerm;57658;51.436;5.980;2023-10-08T00:39:48;37.29;33.27;42.03;;
67300;Laerm;57658;51.436;5.980;2023-10-08T00:40:00;45.55;36.73;52.40;;
67300;Laerm;57658;51.436;5.980;2023-10-08T00:40:10;52.35;40.64;57.13;;
67300;Laerm;57658;51.436;5.980;2023-10-08T00:40:24;39.57;37.13;42.21;;
67300;Laerm;57658;51.436;5.980;2023-10-08T00:40:37;37.09;33.13;40.04;;
67300;Laerm;57658;51.436;5.980;2023-10-08T00:40:48;35.84;32.40;37.99;;
67300;Laerm;57658;51.436;5.980;2023-10-08T00:40:59;34.48;32.76;36.73;;
67300;Laerm;57658;51.436;5.980;2023-10-08T00:41:13;40.42;33.84;48.40;;
67300;Laerm;57658;51.436;5.980;2023-10-08T00:41:24;43.08;36.18;53.53;;
67300;Laerm;57658;51.436;5.980;2023-10-08T00:41:38;50.50;39.64;56.36;;
67300;Laerm;57658;51.436;5.980;2023-10-08T00:41:50;61.23;49.11;69.97;;
67300;Laerm;57658;51.436;5.980;2023-10-08T00:42:00;51.76;40.24;57.82;;
67300;Laerm;57658;51.436;5.980;2023-10-08T00:42:14;36.13;33.43;41.83;;
67300;Laerm;57658;51.436;5.980;2023-10-08T00:42:25;34.26;32.28;36.71;;
67300;Laerm;57658;51.436;5.980;2023-10-08T00:42:35;34.75;32.38;36.96;;
67300;Laerm;57658;51.436;5.980;2023-10-08T00:42:45;34.13;31.91;36.01;;
67300;Laerm;57658;51.436;5.980;2023-10-08T00:42:56;34.26;32.72;36.44;;
67300;Laerm;57658;51.436;5.980;2023-10-08T00:43:06;34.16;32.54;35.82;;
67300;Laerm;57658;51.436;5.980;2023-10-08T00:43:32;36.44;33.36;39.36;;
67300;Laerm;57658;51.436;5.980;2023-10-08T00:43:46;37.57;32.49;42.66;;
67300;Laerm;57658;51.436;5.980;2023-10-08T00:43:56;35.37;33.07;38.26;;
67300;Laerm;57658;51.436;5.980;2023-10-08T00:44:09;35.94;33.79;38.34;;
67300;Laerm;57658;51.436;5.980;2023-10-08T00:44:23;37.28;34.65;40.33;;
67300;Laerm;57658;51.436;5.980;2023-10-08T00:44:48;36.31;33.72;40.45;;
67300;Laerm;57658;51.436;5.980;2023-10-08T00:45:01;39.35;33.94;53.41;;
67300;Laerm;57658;51.436;5.980;2023-10-08T00:45:14;44.15;33.44;66.87;;
67300;Laerm;57658;51.436;5.980;2023-10-08T00:45:25;34.50;32.43;41.88;;
67300;Laerm;57658;51.436;5.980;2023-10-08T00:45:38;43.15;34.24;55.96;;
67300;Laerm;57658;51.436;5.980;2023-10-08T00:45:53;38.47;33.43;51.13;;
67300;Laerm;57658;51.436;5.980;2023-10-08T00:46:04;44.39;34.40;54.38;;
67300;Laerm;57658;51.436;5.980;2023-10-08T00:46:19;43.16;35.92;56.17;;
67300;Laerm;57658;51.436;5.980;2023-10-08T00:46:29;41.91;35.34;53.55;;
67300;Laerm;57658;51.436;5.980;2023-10-08T00:46:46;44.87;35.88;57.29;;
67300;Laerm;57658;51.436;5.980;2023-10-08T00:46:59;44.49;34.71;56.18;;
67300;Laerm;57658;51.436;5.980;2023-10-08T00:47:11;46.19;34.95;58.87;;
67300;Laerm;57658;51.436;5.980;2023-10-08T00:47:22;43.15;37.62;51.74;;
67300;Laerm;57658;51.436;5.980;2023-10-08T00:47:36;40.77;36.88;49.17;;
67300;Laerm;57658;51.436;5.980;2023-10-08T00:47:53;44.72;37.95;53.10;;
67300;Laerm;57658;51.436;5.980;2023-10-08T00:48:06;44.89;37.52;58.14;;
67300;Laerm;57658;51.436;5.980;2023-10-08T00:48:16;44.90;36.53;59.25;;
67300;Laerm;57658;51.436;5.980;2023-10-08T00:48:28;47.77;38.40;58.21;;
67300;Laerm;57658;51.436;5.980;2023-10-08T00:48:45;45.39;39.28;59.76;;
67300;Laerm;57658;51.436;5.980;2023-10-08T00:48:56;48.86;41.64;61.72;;
67300;Laerm;57658;51.436;5.980;2023-10-08T00:49:07;45.99;41.12;60.80;;
67300;Laerm;57658;51.436;5.980;2023-10-08T00:49:32;46.36;40.14;51.20;;
67300;Laerm;57658;51.436;5.980;2023-10-08T00:49:52;48.87;45.50;52.22;;
67300;Laerm;57658;51.436;5.980;2023-10-08T00:50:15;61.48;48.30;77.99;;
67300;Laerm;57658;51.436;5.980;2023-10-08T00:50:32;71.77;60.52;79.03;;
67300;Laerm;57658;51.436;5.980;2023-10-08T00:50:52;67.06;61.73;72.32;;
67300;Laerm;57658;51.436;5.980;2023-10-08T00:51:05;75.22;69.76;78.64;;
67300;Laerm;57658;51.436;5.980;2023-10-08T00:51:26;77.39;73.05;80.94;;
67300;Laerm;57658;51.436;5.980;2023-10-08T00:51:41;69.74;64.10;74.84;;
67300;Laerm;57658;51.436;5.980;2023-10-08T00:51:52;61.69;56.69;69.33;;
67300;Laerm;57658;51.436;5.980;2023-10-08T00:52:11;56.10;49.96;62.20;;
67300;Laerm;57658;51.436;5.980;2023-10-08T00:52:22;51.79;47.67;65.89;;
67300;Laerm;57658;51.436;5.980;2023-10-08T00:52:50;46.00;39.67;51.93;;
67300;Laerm;57658;51.436;5.980;2023-10-08T00:53:10;49.54;36.99;73.65;;
67300;Laerm;57658;51.436;5.980;2023-10-08T00:53:41;42.83;33.83;69.29;;
67300;Laerm;57658;51.436;5.980;2023-10-08T00:53:57;35.34;33.30;37.92;;
67300;Laerm;57658;51.436;5.980;2023-10-08T00:54:09;36.18;33.13;55.00;;
67300;Laerm;57658;51.436;5.980;2023-10-08T00:54:20;34.64;32.75;37.63;;
67300;Laerm;57658;51.436;5.980;2023-10-08T00:54:31;35.00;32.32;37.62;;
67300;Laerm;57658;51.436;5.980;2023-10-08T00:54:58;37.90;34.03;44.06;;
67300;Laerm;57658;51.436;5.980;2023-10-08T00:55:14;43.55;37.52;52.64;;
67300;Laerm;57658;51.436;5.980;2023-10-08T00:55:31;54.87;39.73;60.65;;
67300;Laerm;57658;51.436;5.980;2023-10-08T00:55:44;43.94;35.54;50.55;;
67300;Laerm;57658;51.436;5.980;2023-10-08T00:56:03;34.08;31.79;38.31;;
67300;Laerm;57658;51.436;5.980;2023-10-08T00:56:17;36.54;31.55;46.71;;
67300;Laerm;57658;51.436;5.980;2023-10-08T00:56:29;47.02;31.91;63.08;;
67300;Laerm;57658;51.436;5.980;2023-10-08T00:57:16;43.53;30.99;57.41;;
67300;Laerm;57658;51.436;5.980;2023-10-08T00:57:31;53.00;31.43;68.09;;
67300;Laerm;57658;51.436;5.980;2023-10-08T00:57:45;45.47;31.70;60.03;;
67300;Laerm;57658;51.436;5.980;2023-10-08T00:57:59;45.10;31.15;60.03;;
67300;Laerm;57658;51.436;5.980;2023-10-08T00:58:20;43.29;31.25;58.84;;
67300;Laerm;57658;51.436;5.980;2023-10-08T00:58:37;43.61;31.73;57.20;;
67300;Laerm;57658;51.436;5.980;2023-10-08T00:58:47;40.45;33.30;52.08;;
67300;Laerm;57658;51.436;5.980;2023-10-08T00:59:01;48.58;41.30;58.03;;
67300;Laerm;57658;51.436;5.980;2023-10-08T00:59:13;40.90;33.17;46.74;;
67300;Laerm;57658;51.436;5.980;2023-10-08T00:59:26;41.18;33.21;50.90;;
67300;Laerm;57658;51.436;5.980;2023-10-08T00:59:36;44.32;35.58;51.58;;
67300;Laerm;57658;51.436;5.980;2023-10-08T00:59:56;55.46;42.14;63.17;;
67300;Laerm;57658;51.436;5.980;2023-10-08T01:00:08;55.05;35.13;68.23;;
67300;Laerm;57658;51.436;5.980;2023-10-08T01:00:27;48.47;31.27;66.85;;
67300;Laerm;57658;51.436;5.980;2023-10-08T01:00:47;53.38;30.99;67.92;;
67300;Laerm;57658;51.436;5.980;2023-10-08T01:01:02;49.77;31.29;63.77;;
67300;Laerm;57658;51.436;5.980;2023-10-08T01:01:13;42.04;31.08;54.56;;
67300;Laerm;57658;51.436;5.980;2023-10-08T01:01:26;47.78;31.63;59.17;;
67300;Laerm;57658;51.436;5.980;2023-10-08T01:01:39;47.56;31.38;59.59;;
67300;Laerm;57658;51.436;5.980;2023-10-08T01:01:49;46.10;32.33;58.35;;
67300;Laerm;57658;51.436;5.980;2023-10-08T01:02:10;48.45;32.21;65.86;;
67300;Laerm;57658;51.436;5.980;2023-10-08T01:02:25;49.57;31.12;72.60;;
67300;Laerm;57658;51.436;5.980;2023-10-08T01:02:41;53.34;31.59;68.67;;
67300;Laerm;57658;51.436;5.980;2023-10-08T01:02:59;54.85;31.53;71.03;;
67300;Laerm;57658;51.436;5.980;2023-10-08T01:03:12;55.01;31.94;73.34;;
67300;Laerm;57658;51.436;5.980;2023-10-08T01:03:28;59.58;32.15;76.40;;
67300;Laerm;57658;51.436;5.980;2023-10-08T01:03:38;48.11;32.00;57.26;;
67300;Laerm;57658;51.436;5.980;2023-10-08T01:03:54;50.22;33.20;64.57;;
67300;Laerm;57658;51.436;5.980;2023-10-08T01:04:05;50.24;32.42;63.93;;
67300;Laerm;57658;51.436;5.980;2023-10-08T01:04:22;53.19;32.84;65.75;;
67300;Laerm;57658;51.436;5.980;2023-10-08T01:04:33;52.51;31.48;67.34;;
67300;Laerm;57658;51.436;5.980;2023-10-08T01:04:44;47.04;31.83;63.23;;
67300;Laerm;57658;51.436;5.980;2023-10-08T01:04:55;56.23;31.96;68.89;;
67300;Laerm;57658;51.436;5.980;2023-10-08T01:05:05;49.70;31.79;65.66;;
67300;Laerm;57658;51.436;5.980;2023-10-08T01:05:19;48.53;32.37;66.95;;
67300;Laerm;57658;51.436;5.980;2023-10-08T01:05:36;44.82;32.88;58.97;;
67300;Laerm;57658;51.436;5.980;2023-10-08T01:06:06;46.93;31.71;62.99;;
67300;Laerm;57658;51.436;5.980;2023-10-08T01:06:20;51.72;31.90;68.37;;
67300;Laerm;57658;51.436;5.980;2023-10-08T01:06:31;63.75;31.14;79.14;;
67300;Laerm;57658;51.436;5.980;2023-10-08T01:06:41;61.78;31.92;78.79;;
67300;Laerm;57658;51.436;5.980;2023-10-08T01:06:52;50.12;31.76;62.50;;
67300;Laerm;57658;51.436;5.980;2023-10-08T01:07:12;54.78;31.66;71.51;;
67300;Laerm;57658;51.436;5.980;2023-10-08T01:07:25;57.66;32.99;74.80;;
67300;Laerm;57658;51.436;5.980;2023-10-08T01:07:37;53.02;31.39;65.63;;
67300;Laerm;57658;51.436;5.980;2023-10-08T01:07:52;54.51;31.63;67.32;;
67300;Laerm;57658;51.436;5.980;2023-10-08T01:08:02;54.44;32.11;68.62;;
67300;Laerm;57658;51.436;5.980;2023-10-08T01:08:16;53.08;34.84;65.80;;
67300;Laerm;57658;51.436;5.980;2023-10-08T01:08:42;46.12;31.46;60.08;;
67300;Laerm;57658;51.436;5.980;2023-10-08T01:08:58;46.32;30.94;60.73;;
67300;Laerm;57658;51.436;5.980;2023-10-08T01:09:17;37.73;31.24;53.01;;
67300;Laerm;57658;51.436;5.980;2023-10-08T01:09:28;42.51;31.41;55.58;;
67300;Laerm;57658;51.436;5.980;2023-10-08T01:09:47;38.56;30.97;60.16;;
67300;Laerm;57658;51.436;5.980;2023-10-08T01:10:01;35.27;30.80;44.90;;
67300;Laerm;57658;51.436;5.980;2023-10-08T01:10:20;36.20;30.69;53.38;;
67300;Laerm;57658;51.436;5.980;2023-10-08T01:10:30;34.75;30.29;46.05;;
67300;Laerm;57658;51.436;5.980;2023-10-08T01:10:41;34.53;30.01;44.88;;
67300;Laerm;57658;51.436;5.980;2023-10-08T01:10:57;36.68;30.45;49.27;;
67300;Laerm;57658;51.436;5.980;2023-10-08T01:11:23;33.50;30.74;41.30;;
67300;Laerm;57658;51.436;5.980;2023-10-08T01:12:42;32.01;30.21;34.26;;
67300;Laerm;57658;51.436;5.980;2023-10-08T01:13:19;31.92;30.35;34.77;;
67300;Laerm;57658;51.436;5.980;2023-10-08T01:13:31;32.21;31.02;36.22;;
67300;Laerm;57658;51.436;5.980;2023-10-08T01:13:53;32.23;30.79;35.17;;
67300;Laerm;57658;51.436;5.980;2023-10-08T01:14:05;33.05;31.65;34.70;;
67300;Laerm;57658;51.436;5.980;2023-10-08T01:14:17;32.79;31.01;40.02;;
67300;Laerm;57658;51.436;5.980;2023-10-08T01:14:35;32.40;30.91;33.85;;
67300;Laerm;57658;51.436;5.980;2023-10-08T01:14:46;32.34;30.77;33.80;;
67300;Laerm;57658;51.436;5.980;2023-10-08T01:14:58;32.28;30.97;33.92;;
67300;Laerm;57658;51.436;5.980;2023-10-08T01:15:17;32.48;30.90;36.52;;
67300;Laerm;57658;51.436;5.980;2023-10-08T01:15:33;32.58;31.01;35.08;;
67300;Laerm;57658;51.436;5.980;2023-10-08T01:15:47;32.36;30.92;33.90;;
67300;Laerm;57658;51.436;5.980;2023-10-08T01:16:01;36.23;31.20;43.25;;
67300;Laerm;57658;51.436;5.980;2023-10-08T01:16:12;45.77;39.09;63.47;;
67300;Laerm;57658;51.436;5.980;2023-10-08T01:16:22;45.45;38.58;54.96;;
67300;Laerm;57658;51.436;5.980;2023-10-08T01:16:35;45.36;39.79;58.98;;
67300;Laerm;57658;51.436;5.980;2023-10-08T01:16:45;42.20;37.25;47.63;;
67300;Laerm;57658;51.436;5.980;2023-10-08T01:16:57;38.00;34.06;42.63;;
67300;Laerm;57658;51.436;5.980;2023-10-08T01:17:11;34.14;31.32;36.92;;
67300;Laerm;57658;51.436;5.980;2023-10-08T01:17:29;34.26;30.97;37.49;;
67300;Laerm;57658;51.436;5.980;2023-10-08T01:17:42;34.33;32.22;36.87;;
67300;Laerm;57658;51.436;5.980;2023-10-08T01:18:09;33.35;30.25;39.43;;
67300;Laerm;57658;51.436;5.980;2023-10-08T01:18:24;31.88;30.27;34.11;;
67300;Laerm;57658;51.436;5.980;2023-10-08T01:18:42;32.01;30.24;34.39;;
67300;Laerm;57658;51.436;5.980;2023-10-08T01:19:00;31.79;30.22;33.74;;
67300;Laerm;57658;51.436;5.980;2023-10-08T01:19:10;32.63;30.44;34.74;;